Terminal Aerodrome Forecast
Issued by NWS

Home | Current Version | Previous Version | Text Only | Print | Product List | Glossary On
Versions: 1 2 3 4 5 6 7 8 9 10 11 12 13 14 15 16 17 18 19 20 21 22 23 24 25 26 27 28 29 30 31 32 33
508
FTUS44 KFWD 060530
TAFFTW
TAF
KFTW 060530Z 0606/0706 18004KT 5SM BR BKN007
      TEMPO 0606/0608 SCT007
     FM060800 19003KT 2SM BR OVC003
      TEMPO 0609/0613 1/2SM FG OVC002
     FM061300 01010KT 5SM BR OVC008
     FM061600 01014KT P6SM OVC015
     FM062200 01009KT P6SM BKN040=

USA.gov is the U.S. government's official web portal to all federal, state and local government web resources and services.